createdAt,value
2022-10-28T00:00:12.397Z,12.90
2022-10-28T00:03:02.399Z,13.00
2022-10-28T00:05:49.896Z,12.80
2022-10-28T00:08:37.597Z,12.80
2022-10-28T00:11:26.634Z,12.90
2022-10-28T00:14:14.972Z,13.00
2022-10-28T00:17:03.417Z,12.90
2022-10-28T00:19:50.587Z,12.90
2022-10-28T00:22:37.686Z,12.90
2022-10-28T00:25:25.442Z,12.90
2022-10-28T00:28:12.324Z,12.90
2022-10-28T00:31:05.538Z,13.00
2022-10-28T00:33:54.613Z,13.00
2022-10-28T00:36:43.337Z,12.90
2022-10-28T00:39:30.308Z,12.90
2022-10-28T00:42:20.220Z,13.00
2022-10-28T00:45:08.209Z,12.90
2022-10-28T00:47:58.317Z,12.80
2022-10-28T00:50:51.781Z,12.90
2022-10-28T00:53:40.618Z,12.80
2022-10-28T00:56:31.568Z,12.80
2022-10-28T00:59:21.877Z,12.90
2022-10-28T01:02:09.576Z,12.90
2022-10-28T01:04:57.021Z,12.90
2022-10-28T01:07:46.244Z,12.90
2022-10-28T01:10:59.857Z,12.80
2022-10-28T01:14:01.186Z,12.80
2022-10-28T01:17:01.015Z,12.80
2022-10-28T01:20:26.153Z,12.80
2022-10-28T01:23:23.021Z,12.80
2022-10-28T01:26:39.459Z,12.80
2022-10-28T01:29:47.492Z,12.70
2022-10-28T01:32:49.682Z,12.70
2022-10-28T01:35:45.235Z,12.70
2022-10-28T01:38:36.835Z,12.80
2022-10-28T01:41:31.725Z,12.80
2022-10-28T01:44:25.437Z,12.80
2022-10-28T01:47:16.853Z,12.80
2022-10-28T01:50:09.649Z,12.70
2022-10-28T01:53:00.316Z,12.80
2022-10-28T01:55:50.208Z,12.70
2022-10-28T01:58:40.678Z,12.70
2022-10-28T02:01:29.863Z,12.50
2022-10-28T02:04:17.149Z,12.50
2022-10-28T02:07:06.338Z,12.50
2022-10-28T02:10:04.190Z,12.50
2022-10-28T02:12:55.311Z,12.50
2022-10-28T02:15:50.729Z,12.50
2022-10-28T02:18:49.222Z,12.60
2022-10-28T02:21:47.043Z,12.40
2022-10-28T02:24:45.405Z,12.30
2022-10-28T02:27:37.619Z,12.30
2022-10-28T02:30:29.233Z,12.20
2022-10-28T02:33:20.051Z,12.20
2022-10-28T02:36:09.901Z,12.20
2022-10-28T02:38:59.503Z,12.20
2022-10-28T02:41:53.065Z,12.10
2022-10-28T02:44:42.902Z,12.20
2022-10-28T02:47:33.975Z,12.20
2022-10-28T02:50:26.017Z,12.30
2022-10-28T02:53:16.932Z,12.10
2022-10-28T02:56:06.763Z,12.10
2022-10-28T02:58:55.399Z,12.20
2022-10-28T03:01:42.186Z,12.10
2022-10-28T03:04:29.446Z,11.90
2022-10-28T03:07:16.527Z,11.80
2022-10-28T03:10:04.002Z,11.60
2022-10-28T03:12:51.098Z,11.70
2022-10-28T03:15:39.578Z,11.70
2022-10-28T03:18:26.783Z,11.80
2022-10-28T03:21:14.073Z,11.70
2022-10-28T03:24:01.060Z,11.80
2022-10-28T03:26:48.210Z,11.70
2022-10-28T03:29:35.655Z,11.60
2022-10-28T03:32:24.348Z,11.70
2022-10-28T03:35:11.626Z,11.80
2022-10-28T03:37:58.573Z,11.50
2022-10-28T03:40:48.585Z,11.50
2022-10-28T03:43:35.359Z,11.40
2022-10-28T03:46:22.587Z,11.40
2022-10-28T03:49:11.230Z,11.30
2022-10-28T03:51:58.240Z,11.30
2022-10-28T03:54:45.633Z,11.30
2022-10-28T03:57:33.126Z,11.20
2022-10-28T04:00:20.953Z,11.10
2022-10-28T04:03:07.800Z,11.20
2022-10-28T04:05:56.066Z,11.30
2022-10-28T04:08:43.285Z,11.10
2022-10-28T04:11:30.175Z,11.00
2022-10-28T04:14:17.586Z,11.20
2022-10-28T04:17:04.517Z,11.20
2022-10-28T04:19:51.571Z,11.10
2022-10-28T04:22:39.871Z,11.10
2022-10-28T04:25:28.378Z,11.00
2022-10-28T04:28:15.478Z,10.80
2022-10-28T04:31:03.121Z,10.90
2022-10-28T04:33:50.413Z,10.80
2022-10-28T04:36:37.644Z,10.90
2022-10-28T04:39:26.356Z,10.90
2022-10-28T04:42:13.700Z,11.00
2022-10-28T04:45:01.022Z,11.10
2022-10-28T04:47:48.081Z,10.90
2022-10-28T04:50:35.406Z,10.90
2022-10-28T04:53:30.722Z,10.80
2022-10-28T04:56:19.128Z,10.90
2022-10-28T04:59:06.303Z,10.80
2022-10-28T05:01:53.640Z,10.70
2022-10-28T05:04:40.608Z,10.70
2022-10-28T05:07:27.791Z,10.70
2022-10-28T05:10:17.984Z,10.60
2022-10-28T05:13:06.551Z,10.70
2022-10-28T05:15:53.777Z,10.70
2022-10-28T05:18:40.783Z,10.70
2022-10-28T05:21:28.106Z,10.70
2022-10-28T05:24:15.475Z,10.60
2022-10-28T05:27:02.722Z,10.60
2022-10-28T05:29:51.091Z,10.70
2022-10-28T05:32:38.322Z,10.70
2022-10-28T05:35:25.562Z,10.70
2022-10-28T05:38:12.952Z,10.70
2022-10-28T05:41:00.159Z,10.70
2022-10-28T05:43:47.242Z,10.60
2022-10-28T05:46:35.630Z,10.60
2022-10-28T05:49:22.759Z,10.60
2022-10-28T05:52:09.996Z,10.60
2022-10-28T05:54:57.286Z,10.60
2022-10-28T05:57:44.567Z,10.50
2022-10-28T06:00:33.067Z,10.60
2022-10-28T06:03:21.340Z,10.60
2022-10-28T06:06:08.733Z,10.70
2022-10-28T06:08:56.055Z,10.70
2022-10-28T06:11:41.914Z,10.70
2022-10-28T06:14:28.725Z,10.90
2022-10-28T06:17:16.118Z,10.90
2022-10-28T06:20:05.741Z,11.00
2022-10-28T06:22:55.289Z,11.20
2022-10-28T06:25:43.071Z,11.30
2022-10-28T06:28:30.910Z,11.50
2022-10-28T06:31:18.304Z,11.80
2022-10-28T06:34:06.002Z,12.00
2022-10-28T06:36:54.572Z,12.10
2022-10-28T06:39:42.917Z,12.30
2022-10-28T06:42:30.042Z,12.30
2022-10-28T06:45:17.382Z,12.40
2022-10-28T06:48:07.530Z,12.40
2022-10-28T06:50:56.238Z,12.50
2022-10-28T06:53:44.910Z,12.50
2022-10-28T06:56:32.211Z,12.50
2022-10-28T06:59:19.292Z,12.60
2022-10-28T07:02:06.656Z,12.60
2022-10-28T07:04:53.508Z,12.60
2022-10-28T07:07:40.505Z,12.70
2022-10-28T07:10:29.007Z,12.70
2022-10-28T07:13:16.365Z,12.80
2022-10-28T07:16:03.548Z,12.90
2022-10-28T07:18:50.756Z,13.00
2022-10-28T07:21:38.302Z,13.10
2022-10-28T07:24:25.378Z,13.20
2022-10-28T07:27:14.596Z,13.30
2022-10-28T07:30:01.688Z,13.40
2022-10-28T07:32:48.943Z,13.60
2022-10-28T07:35:36.313Z,13.70
2022-10-28T07:38:23.535Z,14.00
2022-10-28T07:41:11.442Z,14.00
2022-10-28T07:44:00.441Z,14.20
2022-10-28T07:46:47.345Z,14.20
2022-10-28T07:49:34.605Z,14.40
2022-10-28T07:52:21.980Z,14.60
2022-10-28T07:55:09.684Z,14.60
2022-10-28T07:57:57.237Z,14.70
2022-10-28T08:00:45.549Z,14.90
2022-10-28T08:03:38.688Z,15.00
2022-10-28T08:06:26.364Z,15.00
2022-10-28T08:09:13.641Z,15.00
2022-10-28T08:12:00.913Z,15.00
2022-10-28T08:14:47.795Z,15.10
2022-10-28T08:17:36.456Z,15.10
2022-10-28T08:20:24.033Z,15.30
2022-10-28T08:23:10.982Z,15.50
2022-10-28T08:25:58.748Z,15.60
2022-10-28T08:28:46.180Z,15.70
2022-10-28T08:31:33.995Z,15.70
2022-10-28T08:34:22.336Z,15.70
2022-10-28T08:37:09.744Z,16.00
2022-10-28T08:39:56.945Z,16.50
2022-10-28T08:42:48.340Z,16.90
2022-10-28T08:45:45.451Z,17.60
2022-10-28T08:48:35.235Z,17.80
2022-10-28T08:51:29.776Z,18.00
2022-10-28T08:54:21.590Z,17.70
2022-10-28T08:57:18.162Z,17.80
2022-10-28T09:00:08.531Z,17.50
2022-10-28T09:03:09.317Z,17.30
2022-10-28T09:06:03.451Z,17.20
2022-10-28T09:08:52.903Z,17.60
2022-10-28T09:11:58.029Z,18.20
2022-10-28T09:14:58.837Z,18.30
2022-10-28T09:17:55.227Z,18.20
2022-10-28T09:20:52.737Z,18.20
2022-10-28T09:23:49.492Z,18.60
2022-10-28T09:26:48.123Z,19.00
2022-10-28T09:29:44.490Z,19.50
2022-10-28T09:32:43.085Z,20.00
2022-10-28T09:35:34.262Z,20.30
2022-10-28T09:38:28.301Z,20.50
2022-10-28T09:41:20.669Z,20.80
2022-10-28T09:44:16.688Z,21.10
2022-10-28T09:47:05.825Z,21.30
2022-10-28T09:49:57.402Z,21.30
2022-10-28T09:52:51.256Z,21.10
2022-10-28T09:55:38.428Z,21.30
2022-10-28T09:58:25.943Z,21.30
2022-10-28T10:01:15.047Z,21.60
2022-10-28T10:04:02.748Z,21.60
2022-10-28T10:06:53.621Z,21.70
2022-10-28T10:09:41.216Z,21.40
2022-10-28T10:12:29.896Z,21.10
2022-10-28T10:15:26.704Z,20.60
2022-10-28T10:18:18.243Z,20.40
2022-10-28T10:21:06.172Z,20.20
2022-10-28T10:23:52.885Z,20.30
2022-10-28T10:26:40.020Z,20.40
2022-10-28T10:29:27.284Z,20.50
2022-10-28T10:32:19.258Z,20.60
2022-10-28T10:35:20.883Z,20.70
2022-10-28T10:38:08.599Z,20.60
2022-10-28T10:40:55.527Z,20.60
2022-10-28T10:43:42.679Z,20.80
2022-10-28T10:46:29.993Z,20.80
2022-10-28T10:49:17.176Z,20.90
2022-10-28T10:52:08.536Z,20.90
2022-10-28T10:55:05.226Z,21.00
2022-10-28T10:57:52.594Z,21.10
2022-10-28T11:00:47.046Z,21.10
2022-10-28T11:03:38.303Z,21.20
2022-10-28T11:06:29.212Z,21.10
2022-10-28T11:09:23.955Z,21.30
2022-10-28T11:12:25.526Z,21.30
2022-10-28T11:15:25.189Z,21.40
2022-10-28T11:18:20.726Z,21.50
2022-10-28T11:21:15.385Z,21.60
2022-10-28T11:24:16.573Z,21.60
2022-10-28T11:27:14.292Z,21.70
2022-10-28T11:30:02.957Z,21.80
2022-10-28T11:33:24.712Z,21.80
2022-10-28T11:36:23.967Z,21.80
2022-10-28T11:39:21.496Z,21.90
2022-10-28T11:42:24.034Z,22.00
2022-10-28T11:45:16.984Z,21.90
2022-10-28T11:48:19.551Z,21.90
2022-10-28T11:51:19.561Z,22.00
2022-10-28T11:54:27.516Z,22.10
2022-10-28T11:57:18.391Z,22.10
2022-10-28T12:00:22.624Z,22.10
2022-10-28T12:03:40.863Z,22.20
2022-10-28T12:06:40.050Z,22.20
2022-10-28T12:09:37.453Z,22.20
2022-10-28T12:12:31.775Z,22.10
2022-10-28T12:15:25.853Z,22.10
2022-10-28T12:18:19.855Z,22.10
2022-10-28T12:21:15.857Z,22.20
2022-10-28T12:24:06.323Z,22.50
2022-10-28T12:26:56.175Z,22.60
2022-10-28T12:29:49.849Z,22.60
2022-10-28T12:32:38.556Z,22.70
2022-10-28T12:35:29.638Z,22.50
2022-10-28T12:38:23.962Z,22.50
2022-10-28T12:41:16.660Z,22.50
2022-10-28T12:44:10.456Z,22.50
2022-10-28T12:47:07.802Z,22.50
2022-10-28T12:50:05.245Z,22.40
2022-10-28T12:52:59.969Z,22.40
2022-10-28T12:55:51.671Z,22.30
2022-10-28T12:58:46.361Z,22.40
2022-10-28T13:01:35.677Z,22.30
2022-10-28T13:04:24.217Z,22.30
2022-10-28T13:07:28.432Z,22.20
2022-10-28T13:10:25.284Z,22.30
2022-10-28T13:13:36.687Z,22.30
2022-10-28T13:16:53.215Z,22.20
2022-10-28T13:19:54.373Z,22.20
2022-10-28T13:23:15.341Z,22.20
2022-10-28T13:26:16.477Z,22.20
2022-10-28T13:29:07.210Z,22.30
2022-10-28T13:31:55.613Z,22.20
2022-10-28T13:34:42.816Z,22.20
2022-10-28T13:37:36.081Z,22.20
2022-10-28T13:40:44.755Z,22.20
2022-10-28T13:44:07.253Z,22.20
2022-10-28T13:47:31.525Z,22.20
2022-10-28T13:50:42.682Z,22.20
2022-10-28T13:53:40.643Z,22.20
2022-10-28T13:56:42.179Z,22.20
2022-10-28T13:59:33.409Z,22.10
2022-10-28T14:02:34.939Z,22.10
2022-10-28T14:05:26.718Z,22.00
2022-10-28T14:08:22.260Z,22.00
2022-10-28T14:11:14.528Z,21.90
2022-10-28T14:14:04.203Z,21.90
2022-10-28T14:16:51.031Z,21.80
2022-10-28T14:19:38.360Z,21.80
2022-10-28T14:22:31.559Z,21.80
2022-10-28T14:25:56.432Z,21.70
2022-10-28T14:28:57.584Z,21.70
2022-10-28T14:31:45.948Z,21.70
2022-10-28T14:34:45.081Z,21.70
2022-10-28T14:37:51.422Z,21.60
2022-10-28T14:40:46.648Z,21.60
2022-10-28T14:43:53.568Z,21.60
2022-10-28T14:46:56.542Z,21.60
2022-10-28T14:49:58.199Z,21.60
2022-10-28T14:52:47.648Z,21.60
2022-10-28T14:55:36.072Z,21.50
2022-10-28T14:58:25.610Z,21.40
2022-10-28T15:01:25.805Z,21.40
2022-10-28T15:04:14.276Z,21.30
2022-10-28T15:07:01.837Z,21.20
2022-10-28T15:09:53.317Z,21.10
2022-10-28T15:12:40.857Z,21.10
2022-10-28T15:15:29.492Z,21.00
2022-10-28T15:18:22.847Z,20.90
2022-10-28T15:21:12.925Z,20.80
2022-10-28T15:24:01.944Z,20.80
2022-10-28T15:26:54.704Z,20.70
2022-10-28T15:29:43.526Z,20.60
2022-10-28T15:32:33.143Z,20.50
2022-10-28T15:35:40.803Z,20.40
2022-10-28T15:38:39.980Z,20.30
2022-10-28T15:41:52.305Z,20.30
2022-10-28T15:44:40.716Z,20.30
2022-10-28T15:47:33.952Z,20.10
2022-10-28T15:50:40.752Z,20.10
2022-10-28T15:53:40.774Z,20.00
2022-10-28T15:56:28.580Z,19.90
2022-10-28T15:59:21.181Z,19.90
2022-10-28T16:02:43.185Z,19.80
2022-10-28T16:05:47.566Z,19.80
2022-10-28T16:08:35.170Z,19.70
2022-10-28T16:11:23.798Z,19.70
2022-10-28T16:14:35.869Z,19.60
2022-10-28T16:17:26.971Z,19.40
2022-10-28T16:20:18.944Z,19.30
2022-10-28T16:23:05.963Z,19.30
2022-10-28T16:25:53.037Z,19.30
2022-10-28T16:28:45.248Z,19.20
2022-10-28T16:31:33.221Z,19.20
2022-10-28T16:34:20.197Z,19.20
2022-10-28T16:37:22.857Z,19.20
2022-10-28T16:40:30.748Z,19.20
2022-10-28T16:43:20.599Z,19.20
2022-10-28T16:46:11.563Z,19.10
2022-10-28T16:48:58.736Z,19.10
2022-10-28T16:51:46.117Z,19.10
2022-10-28T16:54:33.426Z,19.10
2022-10-28T16:57:21.370Z,19.10
2022-10-28T17:00:11.142Z,19.00
2022-10-28T17:02:59.859Z,19.00
2022-10-28T17:05:47.359Z,19.00
2022-10-28T17:09:01.125Z,19.00
2022-10-28T17:11:41.521Z,19.00
2022-10-28T17:14:28.550Z,18.90
2022-10-28T17:17:16.630Z,18.90
2022-10-28T17:20:06.088Z,18.80
2022-10-28T17:22:54.239Z,18.80
2022-10-28T17:28:34.493Z,18.80
2022-10-28T17:31:24.871Z,18.70
2022-10-28T17:34:12.945Z,18.70
2022-10-28T17:37:01.515Z,18.60
2022-10-28T17:39:48.917Z,18.60
2022-10-28T17:42:36.345Z,18.60
2022-10-28T17:45:23.496Z,18.60
2022-10-28T17:48:11.198Z,18.50
2022-10-28T17:50:58.633Z,18.50
2022-10-28T17:53:47.334Z,18.40
2022-10-28T17:56:34.930Z,18.40
2022-10-28T17:59:21.942Z,18.30
2022-10-28T18:02:12.452Z,18.30
2022-10-28T18:04:59.770Z,18.30
2022-10-28T18:07:46.737Z,18.30
2022-10-28T18:10:35.254Z,18.20
2022-10-28T18:13:22.655Z,18.20
2022-10-28T18:16:12.122Z,18.20
2022-10-28T18:19:04.547Z,18.10
2022-10-28T18:21:51.729Z,18.10
2022-10-28T18:24:38.935Z,18.10
2022-10-28T18:27:29.881Z,18.10
2022-10-28T18:30:17.456Z,18.10
2022-10-28T18:33:04.600Z,18.10
2022-10-28T18:35:51.808Z,18.10
2022-10-28T18:38:39.196Z,18.00
2022-10-28T18:41:28.616Z,18.00
2022-10-28T18:44:19.976Z,18.00
2022-10-28T18:47:08.037Z,18.00
2022-10-28T18:49:55.262Z,17.90
2022-10-28T18:52:42.597Z,17.90
2022-10-28T18:55:29.806Z,17.90
2022-10-28T18:58:17.257Z,17.90
2022-10-28T19:01:07.800Z,17.90
2022-10-28T19:03:56.654Z,17.90
2022-10-28T19:06:44.163Z,17.90
2022-10-28T19:09:31.392Z,17.90
2022-10-28T19:12:18.534Z,17.80
2022-10-28T19:15:06.695Z,17.80
2022-10-28T19:17:55.353Z,17.80
2022-10-28T19:20:42.680Z,17.70
2022-10-28T19:23:29.713Z,17.70
2022-10-28T19:26:16.996Z,17.70
2022-10-28T19:29:05.745Z,17.70
2022-10-28T19:31:52.714Z,17.60
2022-10-28T19:34:41.038Z,17.60
2022-10-28T19:37:28.353Z,17.60
2022-10-28T19:40:15.413Z,17.60
2022-10-28T19:43:02.447Z,17.60
2022-10-28T19:45:49.644Z,17.50
2022-10-28T19:48:36.931Z,17.50
2022-10-28T19:51:27.260Z,17.50
2022-10-28T19:54:15.759Z,17.40
2022-10-28T19:57:03.060Z,17.40
2022-10-28T19:59:50.009Z,17.40
2022-10-28T20:02:37.318Z,17.40
2022-10-28T20:05:24.329Z,17.30
2022-10-28T20:08:13.011Z,17.30
2022-10-28T20:11:01.670Z,17.30
2022-10-28T20:13:52.328Z,17.30
2022-10-28T20:16:42.440Z,17.20
2022-10-28T20:19:29.572Z,17.20
2022-10-28T20:22:17.177Z,17.20
2022-10-28T20:25:08.498Z,17.20
2022-10-28T20:27:56.061Z,17.20
2022-10-28T20:30:43.200Z,17.00
2022-10-28T20:33:31.304Z,17.00
2022-10-28T20:36:23.592Z,17.00
2022-10-28T20:39:13.919Z,16.90
2022-10-28T20:42:02.352Z,16.90
2022-10-28T20:44:49.617Z,16.90
2022-10-28T20:47:36.921Z,16.90
2022-10-28T20:50:24.220Z,16.80
2022-10-28T20:53:11.487Z,16.80
2022-10-28T20:55:59.242Z,16.80
2022-10-28T20:58:47.981Z,16.80
2022-10-28T21:01:37.565Z,16.80
2022-10-28T21:04:24.767Z,16.80
2022-10-28T21:07:12.210Z,16.70
2022-10-28T21:09:59.791Z,16.70
2022-10-28T21:12:46.829Z,16.70
2022-10-28T21:15:37.405Z,16.60
2022-10-28T21:18:25.023Z,16.60
2022-10-28T21:21:12.384Z,16.60
2022-10-28T21:23:59.535Z,16.60
2022-10-28T21:26:48.428Z,16.60
2022-10-28T21:29:39.223Z,16.60
2022-10-28T21:32:28.166Z,16.60
2022-10-28T21:35:15.167Z,16.60
2022-10-28T21:38:02.424Z,16.60
2022-10-28T21:40:49.431Z,16.50
2022-10-28T21:43:38.299Z,16.60
2022-10-28T21:46:25.508Z,16.50
2022-10-28T21:49:13.894Z,16.50
2022-10-28T21:52:01.232Z,16.50
2022-10-28T21:54:48.322Z,16.50
2022-10-28T21:57:35.672Z,16.40
2022-10-28T22:00:23.153Z,16.40
2022-10-28T22:03:10.483Z,16.40
2022-10-28T22:05:59.095Z,16.40
2022-10-28T22:08:46.800Z,16.40
2022-10-28T22:11:33.849Z,16.40
2022-10-28T22:14:21.293Z,16.40
2022-10-28T22:17:08.429Z,16.40
2022-10-28T22:19:55.957Z,16.30
2022-10-28T22:22:44.305Z,16.30
2022-10-28T22:25:32.159Z,16.30
2022-10-28T22:28:19.979Z,16.30
2022-10-28T22:31:08.687Z,16.30
2022-10-28T22:33:57.113Z,16.40
2022-10-28T22:36:44.928Z,16.40
2022-10-28T22:39:33.665Z,16.40
2022-10-28T22:42:20.855Z,16.40
2022-10-28T22:45:08.892Z,16.30
2022-10-28T22:47:56.361Z,16.30
2022-10-28T22:50:43.955Z,16.30
2022-10-28T22:53:31.592Z,16.30
2022-10-28T22:56:22.412Z,16.30
2022-10-28T22:59:09.449Z,16.30
2022-10-28T23:01:56.830Z,16.30
2022-10-28T23:04:44.169Z,16.30
2022-10-28T23:07:31.473Z,16.30
2022-10-28T23:10:18.638Z,16.40
2022-10-28T23:13:07.046Z,16.40
2022-10-28T23:15:54.719Z,16.40
2022-10-28T23:18:41.862Z,16.50
2022-10-28T23:21:28.824Z,16.40
2022-10-28T23:24:16.167Z,16.40
2022-10-28T23:27:03.405Z,16.50
2022-10-28T23:29:51.781Z,16.50
2022-10-28T23:32:39.558Z,16.50
2022-10-28T23:35:27.231Z,16.50
2022-10-28T23:38:16.487Z,16.50
2022-10-28T23:41:05.042Z,16.40
2022-10-28T23:43:52.325Z,16.50
2022-10-28T23:46:41.077Z,16.50
2022-10-28T23:49:28.313Z,16.50
2022-10-28T23:52:15.593Z,16.40
2022-10-28T23:55:02.917Z,16.40
2022-10-28T23:57:50.320Z,16.40
